sensor_id;sensor_type;location;lat;lon;timestamp;pressure;altitude;pressure_sealevel;temperature;humidity
76132;BME280;64877;50.994;13.650;2022-12-07T00:00:54;99429.69;;;3.27;79.70
76132;BME280;64877;50.994;13.650;2022-12-07T00:03:20;99422.50;;;3.29;78.95
76132;BME280;64877;50.994;13.650;2022-12-07T00:05:45;99416.13;;;3.32;78.59
76132;BME280;64877;50.994;13.650;2022-12-07T00:08:10;99421.91;;;3.23;79.20
76132;BME280;64877;50.994;13.650;2022-12-07T00:10:36;99420.91;;;3.25;79.14
76132;BME280;64877;50.994;13.650;2022-12-07T00:13:01;99418.88;;;3.30;78.54
76132;BME280;64877;50.994;13.650;2022-12-07T00:15:26;99414.31;;;3.32;79.28
76132;BME280;64877;50.994;13.650;2022-12-07T00:17:52;99414.09;;;3.20;79.68
76132;BME280;64877;50.994;13.650;2022-12-07T00:20:17;99417.84;;;3.16;79.74
76132;BME280;64877;50.994;13.650;2022-12-07T00:22:42;99410.56;;;3.19;79.96
76132;BME280;64877;50.994;13.650;2022-12-07T00:25:08;99413.00;;;3.24;79.40
76132;BME280;64877;50.994;13.650;2022-12-07T00:27:33;99409.63;;;3.20;79.98
76132;BME280;64877;50.994;13.650;2022-12-07T00:29:59;99409.53;;;3.22;79.86
76132;BME280;64877;50.994;13.650;2022-12-07T00:32:24;99399.72;;;3.22;79.97
76132;BME280;64877;50.994;13.650;2022-12-07T00:34:49;99410.25;;;3.25;79.21
76132;BME280;64877;50.994;13.650;2022-12-07T00:37:15;99396.75;;;3.28;80.01
76132;BME280;64877;50.994;13.650;2022-12-07T00:39:40;99396.13;;;3.23;80.04
76132;BME280;64877;50.994;13.650;2022-12-07T00:42:06;99395.88;;;3.28;79.91
76132;BME280;64877;50.994;13.650;2022-12-07T00:44:31;99386.22;;;3.25;79.77
76132;BME280;64877;50.994;13.650;2022-12-07T00:46:56;99387.94;;;3.26;79.92
76132;BME280;64877;50.994;13.650;2022-12-07T00:49:22;99391.34;;;3.30;79.61
76132;BME280;64877;50.994;13.650;2022-12-07T00:51:48;99387.63;;;3.32;78.97
76132;BME280;64877;50.994;13.650;2022-12-07T00:54:14;99380.47;;;3.33;79.88
76132;BME280;64877;50.994;13.650;2022-12-07T00:56:39;99380.88;;;3.25;79.57
76132;BME280;64877;50.994;13.650;2022-12-07T00:59:05;99389.13;;;3.21;80.20
76132;BME280;64877;50.994;13.650;2022-12-07T01:01:34;99380.13;;;3.23;79.93
76132;BME280;64877;50.994;13.650;2022-12-07T01:04:00;99378.94;;;3.29;79.52
76132;BME280;64877;50.994;13.650;2022-12-07T01:06:27;99380.47;;;3.33;79.75
76132;BME280;64877;50.994;13.650;2022-12-07T01:08:53;99383.22;;;3.31;79.68
76132;BME280;64877;50.994;13.650;2022-12-07T01:11:21;99379.31;;;3.39;79.36
76132;BME280;64877;50.994;13.650;2022-12-07T01:13:49;99389.19;;;3.36;79.37
76132;BME280;64877;50.994;13.650;2022-12-07T01:16:16;99384.72;;;3.37;79.38
76132;BME280;64877;50.994;13.650;2022-12-07T01:18:43;99392.19;;;3.30;80.11
76132;BME280;64877;50.994;13.650;2022-12-07T01:21:14;99386.22;;;3.25;80.29
76132;BME280;64877;50.994;13.650;2022-12-07T01:23:39;99381.50;;;3.30;79.63
76132;BME280;64877;50.994;13.650;2022-12-07T01:26:09;99382.28;;;3.32;79.91
76132;BME280;64877;50.994;13.650;2022-12-07T01:28:34;99383.22;;;3.31;80.79
76132;BME280;64877;50.994;13.650;2022-12-07T01:31:05;99386.47;;;3.21;80.40
76132;BME280;64877;50.994;13.650;2022-12-07T01:33:34;99384.66;;;3.21;80.47
76132;BME280;64877;50.994;13.650;2022-12-07T01:38:38;99388.59;;;2.97;81.59
76132;BME280;64877;50.994;13.650;2022-12-07T01:41:04;99383.56;;;2.91;81.42
76132;BME280;64877;50.994;13.650;2022-12-07T01:43:30;99389.84;;;2.90;81.91
76132;BME280;64877;50.994;13.650;2022-12-07T01:45:57;99382.44;;;2.77;82.14
76132;BME280;64877;50.994;13.650;2022-12-07T01:48:28;99386.84;;;2.78;83.29
76132;BME280;64877;50.994;13.650;2022-12-07T01:51:01;99385.75;;;2.82;83.03
76132;BME280;64877;50.994;13.650;2022-12-07T01:53:28;99383.56;;;2.91;83.40
76132;BME280;64877;50.994;13.650;2022-12-07T01:55:56;99384.44;;;2.91;82.44
76132;BME280;64877;50.994;13.650;2022-12-07T01:58:22;99393.84;;;2.81;82.54
76132;BME280;64877;50.994;13.650;2022-12-07T02:00:48;99384.56;;;2.88;82.21
76132;BME280;64877;50.994;13.650;2022-12-07T02:03:37;99391.34;;;2.95;81.48
76132;BME280;64877;50.994;13.650;2022-12-07T02:06:04;99390.09;;;2.85;82.04
76132;BME280;64877;50.994;13.650;2022-12-07T02:08:31;99390.47;;;2.95;81.51
76132;BME280;64877;50.994;13.650;2022-12-07T02:10:57;99380.28;;;2.85;82.15
76132;BME280;64877;50.994;13.650;2022-12-07T02:13:25;99379.66;;;2.80;82.25
76132;BME280;64877;50.994;13.650;2022-12-07T02:16:08;99374.81;;;2.89;82.19
76132;BME280;64877;50.994;13.650;2022-12-07T02:21:11;99361.34;;;2.73;82.37
76132;BME280;64877;50.994;13.650;2022-12-07T02:27:01;99360.25;;;2.77;82.66
76132;BME280;64877;50.994;13.650;2022-12-07T02:29:40;99363.75;;;2.79;82.21
76132;BME280;64877;50.994;13.650;2022-12-07T02:32:15;99366.47;;;2.77;82.02
76132;BME280;64877;50.994;13.650;2022-12-07T02:40:24;99358.63;;;2.74;81.61
76132;BME280;64877;50.994;13.650;2022-12-07T02:42:55;99358.09;;;2.85;82.11
76132;BME280;64877;50.994;13.650;2022-12-07T02:45:25;99352.03;;;2.81;82.30
76132;BME280;64877;50.994;13.650;2022-12-07T02:47:56;99350.22;;;2.82;81.70
76132;BME280;64877;50.994;13.650;2022-12-07T02:50:23;99343.09;;;2.82;81.58
76132;BME280;64877;50.994;13.650;2022-12-07T02:52:49;99338.22;;;2.73;81.13
76132;BME280;64877;50.994;13.650;2022-12-07T02:55:17;99333.78;;;2.74;81.43
76132;BME280;64877;50.994;13.650;2022-12-07T02:58:03;99322.06;;;2.76;81.37
76132;BME280;64877;50.994;13.650;2022-12-07T03:00:35;99327.28;;;2.79;80.90
76132;BME280;64877;50.994;13.650;2022-12-07T03:03:13;99332.88;;;2.73;81.77
76132;BME280;64877;50.994;13.650;2022-12-07T03:08:46;99336.50;;;2.72;80.98
76132;BME280;64877;50.994;13.650;2022-12-07T03:11:17;99332.75;;;2.76;81.24
76132;BME280;64877;50.994;13.650;2022-12-07T03:16:30;99324.13;;;2.71;81.23
76132;BME280;64877;50.994;13.650;2022-12-07T03:21:46;99317.84;;;2.72;80.24
76132;BME280;64877;50.994;13.650;2022-12-07T03:24:19;99318.00;;;2.69;81.22
76132;BME280;64877;50.994;13.650;2022-12-07T03:26:52;99309.84;;;2.72;80.31
76132;BME280;64877;50.994;13.650;2022-12-07T03:29:44;99307.19;;;2.72;79.95
76132;BME280;64877;50.994;13.650;2022-12-07T03:32:17;99305.59;;;2.68;80.56
76132;BME280;64877;50.994;13.650;2022-12-07T03:35:09;99308.59;;;2.79;80.03
76132;BME280;64877;50.994;13.650;2022-12-07T03:37:52;99304.19;;;2.78;79.07
76132;BME280;64877;50.994;13.650;2022-12-07T03:40:25;99305.22;;;2.76;79.00
76132;BME280;64877;50.994;13.650;2022-12-07T03:42:51;99308.28;;;2.68;79.23
76132;BME280;64877;50.994;13.650;2022-12-07T03:45:21;99309.94;;;2.71;78.41
76132;BME280;64877;50.994;13.650;2022-12-07T03:47:59;99317.22;;;2.67;79.21
76132;BME280;64877;50.994;13.650;2022-12-07T03:51:06;99305.16;;;2.60;79.33
76132;BME280;64877;50.994;13.650;2022-12-07T03:53:54;99305.06;;;2.44;80.41
76132;BME280;64877;50.994;13.650;2022-12-07T03:56:25;99300.44;;;2.48;79.98
76132;BME280;64877;50.994;13.650;2022-12-07T03:58:53;99297.38;;;2.55;79.28
76132;BME280;64877;50.994;13.650;2022-12-07T04:01:19;99302.22;;;2.47;79.63
76132;BME280;64877;50.994;13.650;2022-12-07T04:03:44;99301.47;;;2.45;79.75
76132;BME280;64877;50.994;13.650;2022-12-07T04:06:10;99300.59;;;2.45;79.83
76132;BME280;64877;50.994;13.650;2022-12-07T04:08:35;99292.66;;;2.43;79.58
76132;BME280;64877;50.994;13.650;2022-12-07T04:11:01;99292.97;;;2.37;79.94
76132;BME280;64877;50.994;13.650;2022-12-07T04:13:26;99285.16;;;2.51;80.33
76132;BME280;64877;50.994;13.650;2022-12-07T04:15:52;99288.22;;;2.44;79.31
76132;BME280;64877;50.994;13.650;2022-12-07T04:18:17;99282.19;;;2.40;79.65
76132;BME280;64877;50.994;13.650;2022-12-07T04:20:42;99282.19;;;2.40;79.47
76132;BME280;64877;50.994;13.650;2022-12-07T04:23:08;99270.34;;;2.46;79.12
76132;BME280;64877;50.994;13.650;2022-12-07T04:25:33;99276.66;;;2.43;78.56
76132;BME280;64877;50.994;13.650;2022-12-07T04:27:58;99275.81;;;2.43;79.13
76132;BME280;64877;50.994;13.650;2022-12-07T04:30:24;99269.41;;;2.29;79.33
76132;BME280;64877;50.994;13.650;2022-12-07T04:32:50;99272.97;;;2.28;79.31
76132;BME280;64877;50.994;13.650;2022-12-07T04:35:15;99261.69;;;2.23;79.68
76132;BME280;64877;50.994;13.650;2022-12-07T04:37:40;99262.63;;;2.22;79.57
76132;BME280;64877;50.994;13.650;2022-12-07T04:40:10;99257.16;;;2.25;79.25
76132;BME280;64877;50.994;13.650;2022-12-07T04:42:37;99254.25;;;2.13;80.70
76132;BME280;64877;50.994;13.650;2022-12-07T04:45:02;99248.06;;;2.12;79.54
76132;BME280;64877;50.994;13.650;2022-12-07T04:47:28;99241.63;;;2.16;80.61
76132;BME280;64877;50.994;13.650;2022-12-07T04:49:53;99238.22;;;2.14;79.92
76132;BME280;64877;50.994;13.650;2022-12-07T04:52:19;99235.53;;;2.14;80.80
76132;BME280;64877;50.994;13.650;2022-12-07T04:54:44;99227.06;;;2.23;80.10
76132;BME280;64877;50.994;13.650;2022-12-07T04:57:09;99234.91;;;2.09;80.66
76132;BME280;64877;50.994;13.650;2022-12-07T04:59:35;99232.00;;;2.14;79.88
76132;BME280;64877;50.994;13.650;2022-12-07T05:02:00;99236.47;;;2.13;79.59
76132;BME280;64877;50.994;13.650;2022-12-07T05:04:25;99225.97;;;2.10;79.58
76132;BME280;64877;50.994;13.650;2022-12-07T05:06:51;99224.53;;;2.03;79.59
76132;BME280;64877;50.994;13.650;2022-12-07T05:09:16;99230.03;;;2.00;80.09
76132;BME280;64877;50.994;13.650;2022-12-07T05:11:42;99220.25;;;2.00;80.01
76132;BME280;64877;50.994;13.650;2022-12-07T05:14:20;99224.09;;;1.95;79.83
76132;BME280;64877;50.994;13.650;2022-12-07T05:16:48;99226.03;;;1.91;80.43
76132;BME280;64877;50.994;13.650;2022-12-07T05:19:15;99223.34;;;1.91;80.03
76132;BME280;64877;50.994;13.650;2022-12-07T05:21:40;99222.28;;;1.95;80.06
76132;BME280;64877;50.994;13.650;2022-12-07T05:24:07;99216.56;;;2.03;80.47
76132;BME280;64877;50.994;13.650;2022-12-07T05:26:33;99218.22;;;2.05;79.91
76132;BME280;64877;50.994;13.650;2022-12-07T05:28:59;99210.94;;;2.09;79.73
76132;BME280;64877;50.994;13.650;2022-12-07T05:31:26;99213.59;;;2.09;80.05
76132;BME280;64877;50.994;13.650;2022-12-07T05:33:51;99215.31;;;2.10;79.81
76132;BME280;64877;50.994;13.650;2022-12-07T05:36:17;99202.78;;;2.12;79.15
76132;BME280;64877;50.994;13.650;2022-12-07T05:38:42;99210.00;;;2.10;78.72
76132;BME280;64877;50.994;13.650;2022-12-07T05:41:08;99201.84;;;2.13;78.45
76132;BME280;64877;50.994;13.650;2022-12-07T05:43:57;99202.47;;;2.18;78.94
76132;BME280;64877;50.994;13.650;2022-12-07T05:46:22;99193.84;;;2.13;78.25
76132;BME280;64877;50.994;13.650;2022-12-07T05:48:47;99200.03;;;2.14;78.88
76132;BME280;64877;50.994;13.650;2022-12-07T05:51:13;99193.69;;;2.16;79.11
76132;BME280;64877;50.994;13.650;2022-12-07T05:53:38;99181.00;;;2.21;79.00
76132;BME280;64877;50.994;13.650;2022-12-07T05:56:04;99186.47;;;2.18;78.09
76132;BME280;64877;50.994;13.650;2022-12-07T05:58:29;99178.91;;;2.11;78.34
76132;BME280;64877;50.994;13.650;2022-12-07T06:01:13;99189.63;;;2.09;77.79
76132;BME280;64877;50.994;13.650;2022-12-07T06:03:38;99184.22;;;2.11;78.58
76132;BME280;64877;50.994;13.650;2022-12-07T06:06:04;99186.03;;;2.10;78.79
76132;BME280;64877;50.994;13.650;2022-12-07T06:08:29;99179.91;;;2.08;79.30
76132;BME280;64877;50.994;13.650;2022-12-07T06:10:54;99179.63;;;2.14;78.31
76132;BME280;64877;50.994;13.650;2022-12-07T06:13:40;99187.75;;;2.11;78.56
76132;BME280;64877;50.994;13.650;2022-12-07T06:16:05;99185.84;;;2.13;78.24
76132;BME280;64877;50.994;13.650;2022-12-07T06:18:31;99181.47;;;2.12;79.18
76132;BME280;64877;50.994;13.650;2022-12-07T06:20:56;99174.56;;;2.08;78.52
76132;BME280;64877;50.994;13.650;2022-12-07T06:23:22;99177.00;;;2.13;78.41
76132;BME280;64877;50.994;13.650;2022-12-07T06:25:47;99173.47;;;2.12;78.96
76132;BME280;64877;50.994;13.650;2022-12-07T06:28:12;99165.25;;;2.17;78.28
76132;BME280;64877;50.994;13.650;2022-12-07T06:30:38;99171.75;;;2.28;78.22
76132;BME280;64877;50.994;13.650;2022-12-07T06:33:03;99175.13;;;2.32;78.58
76132;BME280;64877;50.994;13.650;2022-12-07T06:35:28;99172.13;;;2.38;78.40
76132;BME280;64877;50.994;13.650;2022-12-07T06:37:54;99180.97;;;2.39;78.60
76132;BME280;64877;50.994;13.650;2022-12-07T06:40:19;99183.59;;;2.40;79.07
76132;BME280;64877;50.994;13.650;2022-12-07T06:42:44;99181.78;;;2.41;79.53
76132;BME280;64877;50.994;13.650;2022-12-07T06:45:10;99184.91;;;2.49;79.38
76132;BME280;64877;50.994;13.650;2022-12-07T06:47:35;99187.50;;;2.50;79.81
76132;BME280;64877;50.994;13.650;2022-12-07T06:50:01;99184.59;;;2.55;80.19
76132;BME280;64877;50.994;13.650;2022-12-07T06:52:26;99185.13;;;2.62;79.81
76132;BME280;64877;50.994;13.650;2022-12-07T06:54:52;99180.97;;;2.56;80.42
76132;BME280;64877;50.994;13.650;2022-12-07T06:57:17;99190.31;;;2.47;80.77
76132;BME280;64877;50.994;13.650;2022-12-07T06:59:42;99191.97;;;2.50;81.18
76132;BME280;64877;50.994;13.650;2022-12-07T07:02:09;99187.25;;;2.55;80.71
76132;BME280;64877;50.994;13.650;2022-12-07T07:04:34;99185.84;;;2.48;81.17
76132;BME280;64877;50.994;13.650;2022-12-07T07:07:00;99190.25;;;2.49;81.18
76132;BME280;64877;50.994;13.650;2022-12-07T07:09:25;99187.03;;;2.59;81.26
76132;BME280;64877;50.994;13.650;2022-12-07T07:11:51;99192.50;;;2.56;81.31
76132;BME280;64877;50.994;13.650;2022-12-07T07:14:16;99198.34;;;2.63;80.73
76132;BME280;64877;50.994;13.650;2022-12-07T07:16:44;99193.97;;;2.62;81.35
76132;BME280;64877;50.994;13.650;2022-12-07T07:19:09;99197.69;;;2.59;82.20
76132;BME280;64877;50.994;13.650;2022-12-07T07:21:36;99196.19;;;2.54;82.45
76132;BME280;64877;50.994;13.650;2022-12-07T07:24:01;99207.19;;;2.30;82.81
76132;BME280;64877;50.994;13.650;2022-12-07T07:26:26;99202.94;;;2.44;82.97
76132;BME280;64877;50.994;13.650;2022-12-07T07:28:52;99201.38;;;2.40;83.22
76132;BME280;64877;50.994;13.650;2022-12-07T07:31:17;99207.56;;;2.40;83.06
76132;BME280;64877;50.994;13.650;2022-12-07T07:33:43;99207.34;;;2.45;83.24
76132;BME280;64877;50.994;13.650;2022-12-07T07:36:09;99208.28;;;2.44;82.99
76132;BME280;64877;50.994;13.650;2022-12-07T07:38:35;99214.06;;;2.52;82.77
76132;BME280;64877;50.994;13.650;2022-12-07T07:41:00;99221.72;;;2.58;83.22
76132;BME280;64877;50.994;13.650;2022-12-07T07:43:26;99220.00;;;2.57;83.23
76132;BME280;64877;50.994;13.650;2022-12-07T07:45:51;99209.03;;;2.63;82.46
76132;BME280;64877;50.994;13.650;2022-12-07T07:48:16;99222.56;;;2.76;81.85
76132;BME280;64877;50.994;13.650;2022-12-07T07:50:42;99222.66;;;2.74;81.89
76132;BME280;64877;50.994;13.650;2022-12-07T07:53:07;99218.09;;;2.76;81.88
76132;BME280;64877;50.994;13.650;2022-12-07T07:55:33;99222.66;;;2.74;81.99
76132;BME280;64877;50.994;13.650;2022-12-07T07:57:58;99222.44;;;2.79;82.57
76132;BME280;64877;50.994;13.650;2022-12-07T08:00:24;99221.06;;;2.88;82.00
76132;BME280;64877;50.994;13.650;2022-12-07T08:02:49;99220.28;;;2.85;82.12
76132;BME280;64877;50.994;13.650;2022-12-07T08:05:15;99223.91;;;2.84;82.80
76132;BME280;64877;50.994;13.650;2022-12-07T08:07:40;99223.09;;;2.82;82.39
76132;BME280;64877;50.994;13.650;2022-12-07T08:10:09;99223.56;;;2.91;82.40
76132;BME280;64877;50.994;13.650;2022-12-07T08:12:37;99235.47;;;3.01;81.99
76132;BME280;64877;50.994;13.650;2022-12-07T08:15:03;99232.94;;;2.98;82.51
76132;BME280;64877;50.994;13.650;2022-12-07T08:17:28;99229.66;;;2.93;82.21
76132;BME280;64877;50.994;13.650;2022-12-07T08:19:54;99229.66;;;2.93;82.61
76132;BME280;64877;50.994;13.650;2022-12-07T08:22:19;99226.38;;;3.05;81.94
76132;BME280;64877;50.994;13.650;2022-12-07T08:24:44;99223.50;;;3.08;82.25
76132;BME280;64877;50.994;13.650;2022-12-07T08:27:10;99214.50;;;3.10;81.75
76132;BME280;64877;50.994;13.650;2022-12-07T08:29:35;99211.72;;;3.12;82.65
76132;BME280;64877;50.994;13.650;2022-12-07T08:32:01;99205.41;;;3.30;81.15
76132;BME280;64877;50.994;13.650;2022-12-07T08:34:26;99206.25;;;3.31;80.57
76132;BME280;64877;50.994;13.650;2022-12-07T08:36:52;99200.22;;;3.27;81.30
76132;BME280;64877;50.994;13.650;2022-12-07T08:39:17;99213.25;;;3.33;80.59
76132;BME280;64877;50.994;13.650;2022-12-07T08:41:43;99208.94;;;3.47;79.50
76132;BME280;64877;50.994;13.650;2022-12-07T08:44:08;99211.19;;;3.39;79.89
76132;BME280;64877;50.994;13.650;2022-12-07T08:46:39;99220.41;;;3.49;79.71
76132;BME280;64877;50.994;13.650;2022-12-07T08:49:16;99210.56;;;3.49;79.59
76132;BME280;64877;50.994;13.650;2022-12-07T08:51:43;99208.56;;;3.53;79.89
76132;BME280;64877;50.994;13.650;2022-12-07T08:54:12;99211.19;;;3.39;79.71
76132;BME280;64877;50.994;13.650;2022-12-07T08:56:39;99218.66;;;3.48;80.26
76132;BME280;64877;50.994;13.650;2022-12-07T08:59:06;99215.06;;;3.49;80.46
76132;BME280;64877;50.994;13.650;2022-12-07T09:01:32;99216.66;;;3.67;79.48
76132;BME280;64877;50.994;13.650;2022-12-07T09:03:57;99210.72;;;3.62;79.84
76132;BME280;64877;50.994;13.650;2022-12-07T09:06:23;99206.84;;;3.68;79.09
76132;BME280;64877;50.994;13.650;2022-12-07T09:08:51;99212.97;;;3.85;78.93
76132;BME280;64877;50.994;13.650;2022-12-07T09:11:20;99210.19;;;3.87;79.17
76132;BME280;64877;50.994;13.650;2022-12-07T09:13:45;99208.13;;;3.92;78.89
76132;BME280;64877;50.994;13.650;2022-12-07T09:16:11;99210.78;;;3.92;77.94
76132;BME280;64877;50.994;13.650;2022-12-07T09:18:36;99210.34;;;4.00;78.25
76132;BME280;64877;50.994;13.650;2022-12-07T09:21:03;99202.25;;;4.01;77.75
76132;BME280;64877;50.994;13.650;2022-12-07T09:23:28;99203.81;;;3.89;77.90
76132;BME280;64877;50.994;13.650;2022-12-07T09:25:54;99194.28;;;4.15;77.67
76132;BME280;64877;50.994;13.650;2022-12-07T09:28:19;99208.59;;;4.14;77.77
76132;BME280;64877;50.994;13.650;2022-12-07T09:30:46;99202.25;;;4.01;76.80
76132;BME280;64877;50.994;13.650;2022-12-07T09:33:12;99214.72;;;4.17;76.67
76132;BME280;64877;50.994;13.650;2022-12-07T09:35:37;99218.59;;;4.11;77.15
76132;BME280;64877;50.994;13.650;2022-12-07T09:38:03;99219.81;;;4.05;76.88
76132;BME280;64877;50.994;13.650;2022-12-07T09:40:28;99203.00;;;4.19;75.88
76132;BME280;64877;50.994;13.650;2022-12-07T09:42:54;99211.69;;;4.23;75.65
76132;BME280;64877;50.994;13.650;2022-12-07T09:45:27;99211.72;;;4.37;75.35
76132;BME280;64877;50.994;13.650;2022-12-07T09:47:55;99210.44;;;4.58;74.58
76132;BME280;64877;50.994;13.650;2022-12-07T09:50:23;99200.63;;;4.59;75.25
76132;BME280;64877;50.994;13.650;2022-12-07T09:52:50;99204.16;;;4.59;74.68
76132;BME280;64877;50.994;13.650;2022-12-07T09:55:20;99208.44;;;4.62;74.49
76132;BME280;64877;50.994;13.650;2022-12-07T09:57:48;99204.31;;;4.56;74.89
76132;BME280;64877;50.994;13.650;2022-12-07T10:00:16;99210.72;;;4.54;74.92
76132;BME280;64877;50.994;13.650;2022-12-07T10:02:46;99206.53;;;4.64;74.79
76132;BME280;64877;50.994;13.650;2022-12-07T10:05:16;99201.13;;;4.94;74.54
76132;BME280;64877;50.994;13.650;2022-12-07T10:07:41;99192.03;;;5.11;73.55
76132;BME280;64877;50.994;13.650;2022-12-07T10:10:25;99182.00;;;5.29;73.46
76132;BME280;64877;50.994;13.650;2022-12-07T10:13:00;99177.22;;;5.61;71.89
76132;BME280;64877;50.994;13.650;2022-12-07T10:15:55;99179.94;;;5.47;71.95
76132;BME280;64877;50.994;13.650;2022-12-07T10:18:34;99184.16;;;5.36;73.13
76132;BME280;64877;50.994;13.650;2022-12-07T10:21:05;99165.25;;;5.25;72.55
76132;BME280;64877;50.994;13.650;2022-12-07T10:23:33;99179.88;;;5.34;72.13
76132;BME280;64877;50.994;13.650;2022-12-07T10:25:59;99177.66;;;5.40;72.31
76132;BME280;64877;50.994;13.650;2022-12-07T10:28:34;99174.06;;;5.27;73.21
76132;BME280;64877;50.994;13.650;2022-12-07T10:31:02;99172.31;;;5.26;72.42
76132;BME280;64877;50.994;13.650;2022-12-07T10:33:49;99175.00;;;5.26;72.69
76132;BME280;64877;50.994;13.650;2022-12-07T10:36:22;99177.03;;;5.23;73.10
76132;BME280;64877;50.994;13.650;2022-12-07T10:38:53;99173.69;;;5.19;73.09
76132;BME280;64877;50.994;13.650;2022-12-07T10:41:23;99175.41;;;5.06;73.40
76132;BME280;64877;50.994;13.650;2022-12-07T10:43:51;99173.97;;;5.00;72.94
76132;BME280;64877;50.994;13.650;2022-12-07T10:46:45;99170.63;;;4.97;73.81
76132;BME280;64877;50.994;13.650;2022-12-07T10:52:13;99163.38;;;4.84;74.37
76132;BME280;64877;50.994;13.650;2022-12-07T10:54:51;99160.03;;;4.81;75.32
76132;BME280;64877;50.994;13.650;2022-12-07T11:00:25;99162.41;;;4.85;75.32
76132;BME280;64877;50.994;13.650;2022-12-07T11:11:35;99144.66;;;4.84;76.04
76132;BME280;64877;50.994;13.650;2022-12-07T11:18:02;99136.34;;;4.89;75.39
76132;BME280;64877;50.994;13.650;2022-12-07T11:33:57;99142.84;;;4.71;77.22
76132;BME280;64877;50.994;13.650;2022-12-07T11:36:47;99129.56;;;4.69;77.63
76132;BME280;64877;50.994;13.650;2022-12-07T11:39:26;99144.47;;;4.59;77.36
76132;BME280;64877;50.994;13.650;2022-12-07T11:42:04;99137.56;;;4.55;78.50
76132;BME280;64877;50.994;13.650;2022-12-07T11:44:43;99133.16;;;4.39;78.91
76132;BME280;64877;50.994;13.650;2022-12-07T11:47:25;99136.81;;;4.38;79.04
76132;BME280;64877;50.994;13.650;2022-12-07T11:50:38;99136.13;;;4.35;79.66
76132;BME280;64877;50.994;13.650;2022-12-07T11:55:47;99135.94;;;4.38;78.79
76132;BME280;64877;50.994;13.650;2022-12-07T12:01:16;99126.88;;;4.40;78.88
76132;BME280;64877;50.994;13.650;2022-12-07T12:03:53;99124.19;;;4.40;79.33
76132;BME280;64877;50.994;13.650;2022-12-07T12:06:21;99125.16;;;4.54;77.65
76132;BME280;64877;50.994;13.650;2022-12-07T12:14:43;99121.16;;;4.61;78.21
76132;BME280;64877;50.994;13.650;2022-12-07T12:22:33;99110.84;;;4.55;78.12
76132;BME280;64877;50.994;13.650;2022-12-07T12:24:59;99112.75;;;4.53;78.32
76132;BME280;64877;50.994;13.650;2022-12-07T12:27:33;99124.50;;;4.50;78.80
76132;BME280;64877;50.994;13.650;2022-12-07T12:30:01;99130.22;;;4.44;78.63
76132;BME280;64877;50.994;13.650;2022-12-07T12:32:38;99134.88;;;4.40;79.26
76132;BME280;64877;50.994;13.650;2022-12-07T12:37:49;99129.47;;;4.12;78.57
76132;BME280;64877;50.994;13.650;2022-12-07T12:42:49;99122.09;;;4.01;78.62
76132;BME280;64877;50.994;13.650;2022-12-07T12:45:22;99135.94;;;3.94;79.51
76132;BME280;64877;50.994;13.650;2022-12-07T12:50:37;99127.50;;;3.85;80.16
76132;BME280;64877;50.994;13.650;2022-12-07T12:53:22;99131.13;;;3.84;79.83
76132;BME280;64877;50.994;13.650;2022-12-07T12:56:08;99125.13;;;3.65;80.78
76132;BME280;64877;50.994;13.650;2022-12-07T12:58:38;99124.31;;;3.49;81.62
76132;BME280;64877;50.994;13.650;2022-12-07T13:04:01;99116.47;;;3.46;82.15
76132;BME280;64877;50.994;13.650;2022-12-07T13:08:54;99121.47;;;3.36;82.48
76132;BME280;64877;50.994;13.650;2022-12-07T13:11:34;99114.06;;;3.41;82.30
76132;BME280;64877;50.994;13.650;2022-12-07T13:19:59;99103.53;;;3.54;83.18
76132;BME280;64877;50.994;13.650;2022-12-07T13:22:39;99102.41;;;3.58;82.90
76132;BME280;64877;50.994;13.650;2022-12-07T13:25:18;99095.66;;;3.67;82.59
76132;BME280;64877;50.994;13.650;2022-12-07T13:27:51;99098.06;;;3.71;82.44
76132;BME280;64877;50.994;13.650;2022-12-07T13:30:21;99101.22;;;3.78;82.39
76132;BME280;64877;50.994;13.650;2022-12-07T13:33:08;99093.31;;;3.76;82.34
76132;BME280;64877;50.994;13.650;2022-12-07T13:35:36;99097.53;;;3.80;82.65
76132;BME280;64877;50.994;13.650;2022-12-07T13:38:17;99097.75;;;3.92;82.50
76132;BME280;64877;50.994;13.650;2022-12-07T13:41:01;99090.72;;;4.05;82.11
76132;BME280;64877;50.994;13.650;2022-12-07T13:43:27;99089.59;;;4.09;82.11
76132;BME280;64877;50.994;13.650;2022-12-07T13:45:58;99099.53;;;4.21;80.79
76132;BME280;64877;50.994;13.650;2022-12-07T13:48:35;99104.31;;;4.30;79.83
76132;BME280;64877;50.994;13.650;2022-12-07T13:51:03;99099.72;;;4.32;79.14
76132;BME280;64877;50.994;13.650;2022-12-07T13:53:29;99100.91;;;4.43;78.65
76132;BME280;64877;50.994;13.650;2022-12-07T13:55:59;99092.31;;;4.52;78.26
76132;BME280;64877;50.994;13.650;2022-12-07T13:58:27;99098.81;;;4.48;77.53
76132;BME280;64877;50.994;13.650;2022-12-07T14:00:55;99101.50;;;4.48;78.29
76132;BME280;64877;50.994;13.650;2022-12-07T14:03:30;99103.97;;;4.51;78.55
76132;BME280;64877;50.994;13.650;2022-12-07T14:08:30;99104.75;;;4.53;78.09
76132;BME280;64877;50.994;13.650;2022-12-07T14:10:56;99103.00;;;4.52;77.79
76132;BME280;64877;50.994;13.650;2022-12-07T14:13:35;99104.53;;;4.56;77.06
76132;BME280;64877;50.994;13.650;2022-12-07T14:16:03;99102.81;;;4.55;77.04
76132;BME280;64877;50.994;13.650;2022-12-07T14:21:23;99103.97;;;4.51;77.48
76132;BME280;64877;50.994;13.650;2022-12-07T14:24:18;99107.59;;;4.50;77.39
76132;BME280;64877;50.994;13.650;2022-12-07T14:26:47;99101.28;;;4.51;76.48
76132;BME280;64877;50.994;13.650;2022-12-07T14:31:57;99097.06;;;4.47;77.42
76132;BME280;64877;50.994;13.650;2022-12-07T14:34:24;99094.41;;;4.47;76.96
76132;BME280;64877;50.994;13.650;2022-12-07T14:36:50;99095.34;;;4.46;76.66
76132;BME280;64877;50.994;13.650;2022-12-07T14:39:15;99094.50;;;4.45;75.75
76132;BME280;64877;50.994;13.650;2022-12-07T14:41:41;99091.94;;;4.44;76.52
76132;BME280;64877;50.994;13.650;2022-12-07T14:44:15;99089.34;;;4.42;75.59
76132;BME280;64877;50.994;13.650;2022-12-07T14:46:40;99092.97;;;4.41;76.21
76132;BME280;64877;50.994;13.650;2022-12-07T14:49:06;99094.03;;;4.38;76.00